createdAt,value
2017-12-08T00:00:28.410Z,90.22
2017-12-08T00:03:02.929Z,90.75
2017-12-08T00:05:37.314Z,91.08
2017-12-08T00:08:11.968Z,90.42
2017-12-08T00:10:46.649Z,89.45
2017-12-08T00:13:21.022Z,88.29
2017-12-08T00:15:55.445Z,89.40
2017-12-08T00:18:31.935Z,90.79
2017-12-08T00:21:06.513Z,91.07
2017-12-08T00:23:41.032Z,91.80
2017-12-08T00:26:15.804Z,92.25
2017-12-08T00:28:50.186Z,92.54
2017-12-08T00:31:24.587Z,92.93
2017-12-08T00:33:59.381Z,93.05
2017-12-08T00:36:33.798Z,92.74
2017-12-08T00:39:08.183Z,92.24
2017-12-08T00:41:42.855Z,91.75
2017-12-08T00:44:18.243Z,91.17
2017-12-08T00:46:52.642Z,92.02
2017-12-08T00:49:27.237Z,92.77
2017-12-08T00:52:01.916Z,93.15
2017-12-08T00:54:36.825Z,93.68
2017-12-08T00:57:11.899Z,94.41
2017-12-08T00:59:46.569Z,94.18
2017-12-08T01:02:21.052Z,94.75
2017-12-08T01:04:55.610Z,95.33
2017-12-08T01:07:30.094Z,95.61
2017-12-08T01:12:44.506Z,95.34
2017-12-08T01:15:19.209Z,95.40
2017-12-08T01:17:53.971Z,95.43
2017-12-08T01:20:28.799Z,95.46
2017-12-08T01:23:04.534Z,95.42
2017-12-08T01:25:39.206Z,95.53
2017-12-08T01:28:13.871Z,95.43
2017-12-08T01:30:48.612Z,95.39
2017-12-08T01:33:23.352Z,95.20
2017-12-08T01:35:58.102Z,95.53
2017-12-08T01:38:32.908Z,95.82
2017-12-08T01:41:07.722Z,96.17
2017-12-08T01:43:42.410Z,95.48
2017-12-08T01:46:17.204Z,95.60
2017-12-08T01:48:51.754Z,95.81
2017-12-08T01:51:26.173Z,96.15
2017-12-08T01:54:01.135Z,94.62
2017-12-08T01:56:36.826Z,94.03
2017-12-08T01:59:11.365Z,93.99
2017-12-08T02:01:46.126Z,94.38
2017-12-08T02:04:20.650Z,94.43
2017-12-08T02:06:55.046Z,94.48
2017-12-08T02:09:29.736Z,94.49
2017-12-08T02:12:04.230Z,94.65
2017-12-08T02:14:38.874Z,94.02
2017-12-08T02:17:13.324Z,92.88
2017-12-08T02:19:48.101Z,92.94
2017-12-08T02:22:22.719Z,93.21
2017-12-08T02:24:56.886Z,92.44
2017-12-08T02:27:31.279Z,91.09
2017-12-08T02:30:11.430Z,90.29
2017-12-08T02:32:45.847Z,90.95
2017-12-08T02:35:20.557Z,92.01
2017-12-08T02:37:54.736Z,92.66
2017-12-08T02:40:29.194Z,93.13
2017-12-08T02:43:03.572Z,93.07
2017-12-08T02:45:37.998Z,91.81
2017-12-08T02:48:12.535Z,90.98
2017-12-08T02:50:46.631Z,91.73
2017-12-08T02:53:21.066Z,92.22
2017-12-08T02:55:56.369Z,92.65
2017-12-08T02:58:30.794Z,92.80
2017-12-08T03:01:04.883Z,93.06
2017-12-08T03:03:39.326Z,93.04
2017-12-08T03:06:13.714Z,93.31
2017-12-08T03:08:48.255Z,93.31
2017-12-08T03:11:22.677Z,92.45
2017-12-08T03:13:57.258Z,92.60
2017-12-08T03:16:31.606Z,93.04
2017-12-08T03:19:06.083Z,93.09
2017-12-08T03:21:40.534Z,93.26
2017-12-08T03:24:15.053Z,93.28
2017-12-08T03:26:49.492Z,93.47
2017-12-08T03:29:24.847Z,93.49
2017-12-08T03:31:59.410Z,93.72
2017-12-08T03:34:33.953Z,93.70
2017-12-08T03:37:08.722Z,93.74
2017-12-08T03:39:43.544Z,93.43
2017-12-08T03:42:18.289Z,93.25
2017-12-08T03:44:53.446Z,92.68
2017-12-08T03:47:27.848Z,92.43
2017-12-08T03:50:02.387Z,92.67
2017-12-08T03:52:36.853Z,90.86
2017-12-08T03:55:11.636Z,91.17
2017-12-08T03:57:46.201Z,91.67
2017-12-08T04:00:20.577Z,91.25
2017-12-08T04:02:54.969Z,91.15
2017-12-08T04:05:30.626Z,91.94
2017-12-08T04:08:05.245Z,92.46
2017-12-08T04:10:39.650Z,91.99
2017-12-08T04:13:14.030Z,92.08
2017-12-08T04:15:48.438Z,92.84
2017-12-08T04:18:23.290Z,93.06
2017-12-08T04:20:58.373Z,92.76
2017-12-08T04:23:33.745Z,92.92
2017-12-08T04:26:08.548Z,93.16
2017-12-08T04:28:43.203Z,93.66
2017-12-08T04:31:17.947Z,94.07
2017-12-08T04:33:52.862Z,94.36
2017-12-08T04:36:27.530Z,94.41
2017-12-08T04:39:02.110Z,93.93
2017-12-08T04:41:36.523Z,93.87
2017-12-08T04:44:11.229Z,93.95
2017-12-08T04:46:45.651Z,94.06
2017-12-08T04:49:20.156Z,94.11
2017-12-08T04:51:55.006Z,94.05
2017-12-08T04:54:29.566Z,93.61
2017-12-08T04:57:03.934Z,93.49
2017-12-08T04:59:38.466Z,93.14
2017-12-08T05:02:12.842Z,92.82
2017-12-08T05:04:47.309Z,92.84
2017-12-08T05:07:21.786Z,92.83
2017-12-08T05:09:56.332Z,91.90
2017-12-08T05:12:30.422Z,91.48
2017-12-08T05:15:05.318Z,91.94
2017-12-08T05:17:40.428Z,92.23
2017-12-08T05:20:15.322Z,91.92
2017-12-08T05:22:49.506Z,91.88
2017-12-08T05:25:23.872Z,91.16
2017-12-08T05:27:58.385Z,90.48
2017-12-08T05:30:32.916Z,88.89
2017-12-08T05:33:07.518Z,89.42
2017-12-08T05:35:41.593Z,90.02
2017-12-08T05:38:16.094Z,90.70
2017-12-08T05:40:50.497Z,90.19
2017-12-08T05:43:25.395Z,90.83
2017-12-08T05:45:59.801Z,91.25
2017-12-08T05:48:34.332Z,91.55
2017-12-08T05:51:08.793Z,91.24
2017-12-08T05:53:43.300Z,91.42
2017-12-08T05:56:17.727Z,91.96
2017-12-08T05:58:52.184Z,92.39
2017-12-08T06:01:26.868Z,92.04
2017-12-08T06:04:01.390Z,93.28
2017-12-08T06:06:35.852Z,93.71
2017-12-08T06:09:10.286Z,93.74
2017-12-08T06:11:44.707Z,93.84
2017-12-08T06:14:19.321Z,93.95
2017-12-08T06:16:53.454Z,93.76
2017-12-08T06:19:28.270Z,93.43
2017-12-08T06:22:02.998Z,94.30
2017-12-08T06:24:37.666Z,95.00
2017-12-08T06:27:12.180Z,95.27
2017-12-08T06:29:47.044Z,95.23
2017-12-08T06:32:22.137Z,95.31
2017-12-08T06:34:56.923Z,95.51
2017-12-08T06:37:31.670Z,95.84
2017-12-08T06:40:09.356Z,95.95
2017-12-08T06:42:44.158Z,96.01
2017-12-08T06:45:18.830Z,95.90
2017-12-08T06:47:53.614Z,96.07
2017-12-08T06:50:28.350Z,95.76
2017-12-08T06:53:03.221Z,95.78
2017-12-08T06:55:38.030Z,96.14
2017-12-08T06:58:12.729Z,96.27
2017-12-08T07:00:47.484Z,95.96
2017-12-08T07:03:23.002Z,96.03
2017-12-08T07:05:58.194Z,96.11
2017-12-08T07:08:32.649Z,96.05
2017-12-08T07:11:08.070Z,96.33
2017-12-08T07:13:42.946Z,96.53
2017-12-08T07:16:17.643Z,96.46
2017-12-08T07:18:52.194Z,96.45
2017-12-08T07:21:27.110Z,96.12
2017-12-08T07:24:01.961Z,95.94
2017-12-08T07:26:36.619Z,95.92
2017-12-08T07:29:11.503Z,95.67
2017-12-08T07:31:46.188Z,95.77
2017-12-08T07:34:20.978Z,95.66
2017-12-08T07:36:55.378Z,95.58
2017-12-08T07:39:29.882Z,95.43
2017-12-08T07:42:04.793Z,95.06
2017-12-08T07:44:39.315Z,94.84
2017-12-08T07:47:13.372Z,94.45
2017-12-08T07:49:51.375Z,94.17
2017-12-08T07:52:32.068Z,94.17
2017-12-08T07:55:11.139Z,93.75
2017-12-08T07:57:51.885Z,93.40
2017-12-08T08:00:29.855Z,93.48
2017-12-08T08:03:09.846Z,92.97
2017-12-08T08:05:48.287Z,93.31
2017-12-08T08:08:24.818Z,92.65
2017-12-08T08:11:03.321Z,91.85
2017-12-08T08:13:38.878Z,91.90
2017-12-08T08:16:18.207Z,92.26
2017-12-08T08:18:58.648Z,92.80
2017-12-08T08:21:37.584Z,93.09
2017-12-08T08:24:12.718Z,92.55
2017-12-08T08:26:47.231Z,92.58
2017-12-08T08:29:21.635Z,92.50
2017-12-08T08:31:56.173Z,90.90
2017-12-08T08:34:31.458Z,89.71
2017-12-08T08:37:05.947Z,88.09
2017-12-08T08:39:40.636Z,87.52
2017-12-08T08:42:14.826Z,87.02
2017-12-08T08:44:49.419Z,86.99
2017-12-08T08:47:23.778Z,87.49
2017-12-08T08:49:58.273Z,88.08
2017-12-08T08:52:32.693Z,88.21
2017-12-08T08:55:07.194Z,88.74
2017-12-08T08:57:41.677Z,89.11
2017-12-08T09:00:16.801Z,89.31
2017-12-08T09:02:51.230Z,90.10
2017-12-08T09:05:25.687Z,90.27
2017-12-08T09:08:00.330Z,90.50
2017-12-08T09:10:34.746Z,90.19
2017-12-08T09:13:09.202Z,89.80
2017-12-08T09:15:43.625Z,89.05
2017-12-08T09:18:18.759Z,88.60
2017-12-08T09:20:53.347Z,89.87
2017-12-08T09:23:27.590Z,90.09
2017-12-08T09:26:02.178Z,90.46
2017-12-08T09:28:36.718Z,89.60
2017-12-08T09:31:11.086Z,89.51
2017-12-08T09:33:46.479Z,90.52
2017-12-08T09:36:20.978Z,90.92
2017-12-08T09:38:55.475Z,90.36
2017-12-08T09:41:30.013Z,89.20
2017-12-08T09:44:04.535Z,89.32
2017-12-08T09:46:38.970Z,90.27
2017-12-08T09:49:13.512Z,90.41
2017-12-08T09:51:47.886Z,89.77
2017-12-08T09:54:23.312Z,89.91
2017-12-08T09:56:57.886Z,89.61
2017-12-08T09:59:32.046Z,89.65
2017-12-08T10:02:06.461Z,90.66
2017-12-08T10:04:41.073Z,90.86
2017-12-08T10:07:15.860Z,91.04
2017-12-08T10:09:50.383Z,90.71
2017-12-08T10:12:24.766Z,90.57
2017-12-08T10:14:59.286Z,90.61
2017-12-08T10:17:33.642Z,90.21
2017-12-08T10:20:08.029Z,90.85
2017-12-08T10:22:42.013Z,90.84
2017-12-08T10:25:16.416Z,91.27
2017-12-08T10:27:51.025Z,91.71
2017-12-08T10:30:25.078Z,92.23
2017-12-08T10:32:59.321Z,91.97
2017-12-08T10:35:33.729Z,92.09
2017-12-08T10:38:08.301Z,91.44
2017-12-08T10:40:42.450Z,91.53
2017-12-08T10:43:16.869Z,91.15
2017-12-08T10:45:51.318Z,90.83
2017-12-08T10:48:25.898Z,90.86
2017-12-08T10:51:00.349Z,91.02
2017-12-08T10:53:35.053Z,91.42
2017-12-08T10:56:09.762Z,91.69
2017-12-08T10:58:44.142Z,91.39
2017-12-08T11:01:18.655Z,91.28
2017-12-08T11:03:53.158Z,90.78
2017-12-08T11:06:27.655Z,90.62
2017-12-08T11:09:02.122Z,90.39
2017-12-08T11:11:36.243Z,90.66
2017-12-08T11:14:10.836Z,90.06
2017-12-08T11:16:45.260Z,90.23
2017-12-08T11:19:20.080Z,90.69
2017-12-08T11:21:54.426Z,90.26
2017-12-08T11:24:29.921Z,89.58
2017-12-08T11:27:04.644Z,89.55
2017-12-08T11:29:41.874Z,88.90
2017-12-08T11:32:16.334Z,88.74
2017-12-08T11:34:50.911Z,87.95
2017-12-08T11:37:25.978Z,88.25
2017-12-08T11:40:00.230Z,88.34
2017-12-08T11:42:34.681Z,87.84
2017-12-08T11:45:08.806Z,87.64
2017-12-08T11:47:43.158Z,86.14
2017-12-08T11:50:17.593Z,86.06
2017-12-08T11:52:52.175Z,85.21
2017-12-08T11:55:26.537Z,85.56
2017-12-08T11:58:01.106Z,85.57
2017-12-08T12:00:35.545Z,84.28
2017-12-08T12:03:09.974Z,84.14
2017-12-08T12:05:44.470Z,84.33
2017-12-08T12:08:18.841Z,83.39
2017-12-08T12:10:53.305Z,83.41
2017-12-08T12:13:27.827Z,83.55
2017-12-08T12:16:02.214Z,83.55
2017-12-08T12:18:36.702Z,83.40
2017-12-08T12:21:11.150Z,83.11
2017-12-08T12:23:45.675Z,82.66
2017-12-08T12:26:20.075Z,83.36
2017-12-08T12:28:54.493Z,83.52
2017-12-08T12:31:29.010Z,83.34
2017-12-08T12:34:03.624Z,83.18
2017-12-08T12:36:38.135Z,84.12
2017-12-08T12:39:12.766Z,84.32
2017-12-08T12:41:47.250Z,85.26
2017-12-08T12:44:21.866Z,85.35
2017-12-08T12:46:56.257Z,84.96
2017-12-08T12:49:30.739Z,84.53
2017-12-08T12:52:05.222Z,84.03
2017-12-08T12:54:39.797Z,84.35
2017-12-08T12:57:14.274Z,83.39
2017-12-08T12:59:48.765Z,83.22
2017-12-08T13:02:23.379Z,83.83
2017-12-08T13:04:58.523Z,83.90
2017-12-08T13:07:33.074Z,85.19
2017-12-08T13:10:07.631Z,85.57
2017-12-08T13:12:42.673Z,84.97
2017-12-08T13:15:17.070Z,84.80
2017-12-08T13:17:52.305Z,85.27
2017-12-08T13:20:26.920Z,85.03
2017-12-08T13:23:01.858Z,84.86
2017-12-08T13:25:36.362Z,85.14
2017-12-08T13:28:11.381Z,84.23
2017-12-08T13:30:45.871Z,82.76
2017-12-08T13:33:20.278Z,81.28
2017-12-08T13:35:54.641Z,82.46
2017-12-08T13:38:30.506Z,83.44
2017-12-08T13:41:05.059Z,83.78
2017-12-08T13:43:39.554Z,83.48
2017-12-08T13:46:13.938Z,84.16
2017-12-08T13:48:48.783Z,84.29
2017-12-08T13:51:23.261Z,84.75
2017-12-08T13:54:08.888Z,85.28
2017-12-08T13:56:57.668Z,84.28
2017-12-08T13:59:32.272Z,85.27
2017-12-08T14:02:06.346Z,85.13
2017-12-08T14:04:40.831Z,84.71
2017-12-08T14:07:15.192Z,85.53
2017-12-08T14:09:49.654Z,85.95
2017-12-08T14:12:24.217Z,84.52
2017-12-08T14:14:58.673Z,85.28
2017-12-08T14:17:33.310Z,85.31
2017-12-08T14:20:14.002Z,85.17
2017-12-08T14:22:48.521Z,86.04
2017-12-08T14:25:22.871Z,86.31
2017-12-08T14:27:57.250Z,86.37
2017-12-08T14:30:31.957Z,86.64
2017-12-08T14:33:06.687Z,87.07
2017-12-08T14:35:41.193Z,86.34
2017-12-08T14:38:15.783Z,86.17
2017-12-08T14:40:50.282Z,86.75
2017-12-08T14:43:25.701Z,86.72
2017-12-08T14:46:00.215Z,87.03
2017-12-08T14:48:34.710Z,86.70
2017-12-08T14:51:09.262Z,87.17
2017-12-08T14:53:43.674Z,87.41
2017-12-08T14:56:18.135Z,88.22
2017-12-08T14:58:53.891Z,88.16
2017-12-08T15:01:28.472Z,87.50
2017-12-08T15:04:03.074Z,87.76
2017-12-08T15:06:37.498Z,86.86
2017-12-08T15:09:11.864Z,86.31
2017-12-08T15:11:46.044Z,87.16
2017-12-08T15:14:21.298Z,85.82
2017-12-08T15:16:55.385Z,86.68
2017-12-08T15:19:29.901Z,86.36
2017-12-08T15:22:04.409Z,87.25
2017-12-08T15:24:38.971Z,87.33
2017-12-08T15:27:13.831Z,84.82
2017-12-08T15:29:49.042Z,85.62
2017-12-08T15:32:23.573Z,86.00
2017-12-08T15:34:58.155Z,85.91
2017-12-08T15:37:32.214Z,85.68
2017-12-08T15:40:11.717Z,85.61
2017-12-08T15:42:46.249Z,84.75
2017-12-08T15:45:20.657Z,85.03
2017-12-08T15:47:54.863Z,85.78
2017-12-08T15:50:28.845Z,86.27
2017-12-08T15:53:02.807Z,87.44
2017-12-08T15:55:38.101Z,89.59
2017-12-08T15:58:12.549Z,90.95
2017-12-08T16:00:47.441Z,90.86
2017-12-08T16:03:22.058Z,90.15
2017-12-08T16:05:56.434Z,89.34
2017-12-08T16:08:30.935Z,88.45
2017-12-08T16:11:06.080Z,87.61
2017-12-08T16:13:40.494Z,86.77
2017-12-08T16:16:14.642Z,86.51
2017-12-08T16:18:49.090Z,86.21
2017-12-08T16:21:23.597Z,85.59
2017-12-08T16:23:58.150Z,85.36
2017-12-08T16:26:32.744Z,84.66
2017-12-08T16:29:11.793Z,84.98
2017-12-08T16:31:46.223Z,84.89
2017-12-08T16:34:21.443Z,84.63
2017-12-08T16:36:56.057Z,84.27
2017-12-08T16:39:30.307Z,84.27
2017-12-08T16:42:04.690Z,84.77
2017-12-08T16:44:39.138Z,82.73
2017-12-08T16:47:13.570Z,82.73
2017-12-08T16:49:48.190Z,81.59
2017-12-08T16:52:22.617Z,82.28
2017-12-08T16:54:57.310Z,81.26
2017-12-08T16:57:31.858Z,81.41
2017-12-08T17:00:08.691Z,81.36
2017-12-08T17:02:43.326Z,80.78
2017-12-08T17:05:17.755Z,80.17
2017-12-08T17:07:52.175Z,79.37
2017-12-08T17:10:26.538Z,79.82
2017-12-08T17:13:01.370Z,79.66
2017-12-08T17:15:35.778Z,79.27
2017-12-08T17:18:10.040Z,79.26
2017-12-08T17:20:44.097Z,78.95
2017-12-08T17:23:18.466Z,78.94
2017-12-08T17:25:52.533Z,78.37
2017-12-08T17:28:27.061Z,78.61
2017-12-08T17:31:01.433Z,78.46
2017-12-08T17:33:35.994Z,79.02
2017-12-08T17:36:10.398Z,78.75
2017-12-08T17:38:45.026Z,79.01
2017-12-08T17:41:19.054Z,78.30
2017-12-08T17:43:53.558Z,78.30
2017-12-08T17:46:28.053Z,77.76
2017-12-08T17:49:02.574Z,77.88
2017-12-08T17:51:36.917Z,78.01
2017-12-08T17:54:11.432Z,77.44
2017-12-08T17:56:45.774Z,77.62
2017-12-08T17:59:20.322Z,77.22
2017-12-08T18:01:54.718Z,76.49
2017-12-08T18:04:29.250Z,76.92
2017-12-08T18:07:04.443Z,75.81
2017-12-08T18:09:39.060Z,76.22
2017-12-08T18:12:13.175Z,75.24
2017-12-08T18:14:47.370Z,75.21
2017-12-08T18:17:21.515Z,75.43
2017-12-08T18:19:55.673Z,75.65
2017-12-08T18:22:30.056Z,74.30
2017-12-08T18:25:04.504Z,74.65
2017-12-08T18:27:38.879Z,73.71
2017-12-08T18:30:14.270Z,73.76
2017-12-08T18:32:48.749Z,73.84
2017-12-08T18:35:23.222Z,73.21
2017-12-08T18:37:58.017Z,72.10
2017-12-08T18:40:32.593Z,72.96
2017-12-08T18:43:07.166Z,71.86
2017-12-08T18:45:41.551Z,72.67
2017-12-08T18:48:16.068Z,71.43
2017-12-08T18:50:50.485Z,71.88
2017-12-08T18:53:24.896Z,71.73
2017-12-08T18:56:03.475Z,72.61
2017-12-08T18:58:38.586Z,72.68
2017-12-08T19:01:13.163Z,72.52
2017-12-08T19:03:47.751Z,72.33
2017-12-08T19:06:21.817Z,72.07
2017-12-08T19:08:56.379Z,71.90
2017-12-08T19:11:30.750Z,71.49
2017-12-08T19:14:05.286Z,69.77
2017-12-08T19:16:40.579Z,70.14
2017-12-08T19:19:15.813Z,68.91
2017-12-08T19:21:50.438Z,68.29
2017-12-08T19:24:24.714Z,68.41
2017-12-08T19:26:59.079Z,68.14
2017-12-08T19:29:33.582Z,67.60
2017-12-08T19:32:07.650Z,67.25
2017-12-08T19:34:42.217Z,66.83
2017-12-08T19:37:16.622Z,66.29
2017-12-08T19:39:51.091Z,66.01
2017-12-08T19:42:25.590Z,66.26
2017-12-08T19:45:00.174Z,65.23
2017-12-08T19:47:34.626Z,65.05
2017-12-08T19:50:10.693Z,64.79
2017-12-08T19:52:45.074Z,63.92
2017-12-08T19:55:19.497Z,64.83
2017-12-08T19:57:53.998Z,64.21
2017-12-08T20:00:39.577Z,63.96
2017-12-08T20:03:14.069Z,64.21
2017-12-08T20:05:48.521Z,64.73
2017-12-08T20:08:23.150Z,65.90
2017-12-08T20:10:57.590Z,67.06
2017-12-08T20:13:31.862Z,68.15
2017-12-08T20:16:06.393Z,68.89
2017-12-08T20:18:40.885Z,69.34
2017-12-08T20:21:14.935Z,69.85
2017-12-08T20:23:49.126Z,70.50
2017-12-08T20:26:23.562Z,70.99
2017-12-08T20:28:58.094Z,71.19
2017-12-08T20:31:32.486Z,71.30
2017-12-08T20:34:07.090Z,70.57
2017-12-08T20:36:41.835Z,70.81
2017-12-08T20:39:16.230Z,70.17
2017-12-08T20:41:50.622Z,71.28
2017-12-08T20:44:25.022Z,71.26
2017-12-08T20:46:59.495Z,71.27
2017-12-08T20:49:34.046Z,71.14
2017-12-08T20:52:08.387Z,71.57
2017-12-08T20:54:42.978Z,71.18
2017-12-08T20:57:17.459Z,70.44
2017-12-08T20:59:52.073Z,70.46
2017-12-08T21:02:26.429Z,70.38
2017-12-08T21:05:00.999Z,70.25
2017-12-08T21:07:35.371Z,70.42
2017-12-08T21:10:15.570Z,70.30
2017-12-08T21:12:50.008Z,70.46
2017-12-08T21:15:24.777Z,70.17
2017-12-08T21:17:59.318Z,70.44
2017-12-08T21:20:33.710Z,70.75
2017-12-08T21:23:08.443Z,70.91
2017-12-08T21:25:42.498Z,70.32
2017-12-08T21:28:16.565Z,70.55
2017-12-08T21:30:50.928Z,70.86
2017-12-08T21:33:25.399Z,70.47
2017-12-08T21:35:59.879Z,70.40
2017-12-08T21:38:34.434Z,70.27
2017-12-08T21:41:08.853Z,69.76
2017-12-08T21:43:43.444Z,70.04
2017-12-08T21:46:17.918Z,70.64
2017-12-08T21:48:52.538Z,70.17
2017-12-08T21:51:26.969Z,69.52
2017-12-08T21:54:01.541Z,69.97
2017-12-08T21:56:35.928Z,69.57
2017-12-08T21:59:10.403Z,69.76
2017-12-08T22:01:44.501Z,69.51
2017-12-08T22:04:18.994Z,69.18
2017-12-08T22:06:53.438Z,68.56
2017-12-08T22:09:27.810Z,68.66
2017-12-08T22:12:02.245Z,68.07
2017-12-08T22:14:36.698Z,67.64
2017-12-08T22:17:11.154Z,67.54
2017-12-08T22:19:45.672Z,67.30
2017-12-08T22:22:20.206Z,68.01
2017-12-08T22:24:54.614Z,68.46
2017-12-08T22:27:29.078Z,68.35
2017-12-08T22:32:45.795Z,68.22
2017-12-08T22:35:20.597Z,68.36
2017-12-08T22:37:55.032Z,68.10
2017-12-08T22:40:29.358Z,68.67
2017-12-08T22:43:03.856Z,69.01
2017-12-08T22:45:38.234Z,69.40
2017-12-08T22:48:12.839Z,70.24
2017-12-08T22:50:46.985Z,70.70
2017-12-08T22:53:21.487Z,71.37
2017-12-08T22:55:55.945Z,71.24
2017-12-08T22:58:30.466Z,71.44
2017-12-08T23:01:04.961Z,71.79
2017-12-08T23:03:39.572Z,71.35
2017-12-08T23:06:14.003Z,71.47
2017-12-08T23:08:48.622Z,70.92
2017-12-08T23:11:23.090Z,70.97
2017-12-08T23:13:57.674Z,71.51
2017-12-08T23:16:32.122Z,71.33
2017-12-08T23:19:06.620Z,70.99
2017-12-08T23:21:40.974Z,70.91
2017-12-08T23:24:15.546Z,71.49
2017-12-08T23:26:50.007Z,70.96
2017-12-08T23:29:24.501Z,71.35
2017-12-08T23:31:58.871Z,70.98
2017-12-08T23:34:33.394Z,70.78
2017-12-08T23:37:07.911Z,70.20
2017-12-08T23:39:42.398Z,70.06
2017-12-08T23:42:16.794Z,70.42
2017-12-08T23:44:51.372Z,70.23
2017-12-08T23:47:25.823Z,70.24
2017-12-08T23:50:00.310Z,69.89
2017-12-08T23:52:34.886Z,69.92
2017-12-08T23:55:15.726Z,69.94
2017-12-08T23:57:50.244Z,69.77
